Terminal Aerodrome Forecast
Issued by NWS

Home | Current Version | Previous Version | Text Only | Print | Product List | Glossary On
Versions: 1 2 3 4 5 6 7 8 9 10 11 12 13 14 15
000
FTUS45 KGJT 261736
TAFVEL
TAF
KVEL 261736Z 2618/2718 VRB03KT P6SM SCT080
     FM262100 24008KT P6SM SCT080
      TEMPO 2623/2703 VRB15G30KT TS BKN080CB
     FM270300 31004KT P6SM FEW200
     FM271400 VRB03KT P6SM SKC=

USA.gov is the U.S. government's official web portal to all federal, state and local government web resources and services.